createdAt,value
2023-01-29T00:02:22.046Z,100828.67
2023-01-29T00:04:49.192Z,100828.09
2023-01-29T00:07:16.426Z,100827.56
2023-01-29T00:09:44.100Z,100826.19
2023-01-29T00:12:11.491Z,100832.17
2023-01-29T00:14:38.275Z,100832.42
2023-01-29T00:17:05.288Z,100835.33
2023-01-29T00:19:32.565Z,100840.18
2023-01-29T00:21:59.324Z,100845.73
2023-01-29T00:24:26.359Z,100852.56
2023-01-29T00:26:53.235Z,100854.73
2023-01-29T00:29:21.468Z,100856.84
2023-01-29T00:31:48.848Z,100858.39
2023-01-29T00:34:16.130Z,100860.10
2023-01-29T00:36:45.168Z,100861.82
2023-01-29T00:39:12.593Z,100860.77
2023-01-29T00:42:00.448Z,100863.45
2023-01-29T00:44:46.275Z,100863.55
2023-01-29T00:47:34.586Z,100862.55
2023-01-29T00:50:02.295Z,100860.05
2023-01-29T00:52:29.456Z,100861.77
2023-01-29T00:54:58.303Z,100867.24
2023-01-29T00:57:26.446Z,100864.28
2023-01-29T00:59:53.779Z,100863.80
2023-01-29T01:02:39.359Z,100860.00
2023-01-29T01:05:07.205Z,100861.86
2023-01-29T01:07:34.360Z,100858.81
2023-01-29T01:10:19.654Z,100864.11
2023-01-29T01:12:53.356Z,100861.55
2023-01-29T01:15:20.355Z,100868.42
2023-01-29T01:17:48.460Z,100864.21
2023-01-29T01:20:15.921Z,100861.58
2023-01-29T01:22:43.187Z,100860.28
2023-01-29T01:25:10.160Z,100854.38
2023-01-29T01:27:40.548Z,100849.82
2023-01-29T01:30:10.376Z,100851.95
2023-01-29T01:32:38.080Z,100856.10
2023-01-29T01:35:09.371Z,100858.52
2023-01-29T01:37:37.134Z,100858.90
2023-01-29T01:40:15.071Z,100855.11
2023-01-29T01:42:42.200Z,100859.94
2023-01-29T01:45:38.274Z,100866.04
2023-01-29T01:48:20.049Z,100862.48
2023-01-29T01:50:56.149Z,100861.36
2023-01-29T01:53:58.311Z,100861.91
2023-01-29T01:56:28.317Z,100860.41
2023-01-29T01:58:56.446Z,100863.34
2023-01-29T02:01:27.619Z,100866.98
2023-01-29T02:04:20.202Z,100870.48
2023-01-29T02:07:06.080Z,100868.25
2023-01-29T02:09:48.870Z,100866.14
2023-01-29T02:12:15.819Z,100865.48
2023-01-29T02:14:42.989Z,100867.61
2023-01-29T02:17:11.997Z,100869.79
2023-01-29T02:20:07.131Z,100870.75
2023-01-29T02:23:03.417Z,100871.20
2023-01-29T02:25:59.032Z,100873.23
2023-01-29T02:28:32.054Z,100874.48
2023-01-29T02:31:09.407Z,100871.70
2023-01-29T02:33:59.876Z,100873.27
2023-01-29T02:36:46.396Z,100871.21
2023-01-29T02:39:32.637Z,100873.71
2023-01-29T02:42:11.842Z,100873.31
2023-01-29T02:44:43.474Z,100877.54
2023-01-29T02:47:34.602Z,100878.02
2023-01-29T02:50:20.648Z,100879.69
2023-01-29T02:53:07.214Z,100878.34
2023-01-29T02:55:42.454Z,100879.20
2023-01-29T02:58:51.091Z,100875.50
2023-01-29T03:01:33.481Z,100872.35
2023-01-29T03:04:12.195Z,100870.79
2023-01-29T03:06:44.663Z,100871.41
2023-01-29T03:09:18.146Z,100866.77
2023-01-29T03:11:49.308Z,100869.17
2023-01-29T03:14:52.224Z,100868.90
2023-01-29T03:17:22.132Z,100867.45
2023-01-29T03:19:48.924Z,100870.04
2023-01-29T03:22:22.809Z,100874.18
2023-01-29T03:25:15.676Z,100876.23
2023-01-29T03:28:12.249Z,100873.41
2023-01-29T03:31:06.027Z,100877.30
2023-01-29T03:33:51.974Z,100878.25
2023-01-29T03:36:45.127Z,100873.60
2023-01-29T03:39:13.189Z,100869.64
2023-01-29T03:41:49.880Z,100873.16
2023-01-29T03:44:51.285Z,100873.36
2023-01-29T03:47:39.933Z,100873.86
2023-01-29T04:02:09.922Z,100874.91
2023-01-29T04:04:38.689Z,100872.08
2023-01-29T04:07:14.977Z,100867.04
2023-01-29T04:10:00.363Z,100866.81
2023-01-29T04:12:47.025Z,100868.98
2023-01-29T04:15:17.441Z,100865.62
2023-01-29T04:17:52.702Z,100860.45
2023-01-29T04:20:36.238Z,100868.90
2023-01-29T04:23:06.166Z,100864.84
2023-01-29T04:25:44.347Z,100868.81
2023-01-29T04:28:17.467Z,100863.35
2023-01-29T04:30:54.640Z,100860.41
2023-01-29T04:33:57.083Z,100856.95
2023-01-29T04:36:37.982Z,100855.92
2023-01-29T04:39:17.120Z,100857.91
2023-01-29T04:41:54.783Z,100863.73
2023-01-29T04:44:30.684Z,100871.87
2023-01-29T04:47:07.611Z,100872.02
2023-01-29T04:50:06.793Z,100875.09
2023-01-29T04:53:14.440Z,100875.63
2023-01-29T04:55:52.245Z,100874.95
2023-01-29T04:58:42.024Z,100876.27
2023-01-29T05:01:11.749Z,100875.10
2023-01-29T05:03:38.826Z,100871.67
2023-01-29T05:06:06.526Z,100872.55
2023-01-29T05:08:33.760Z,100871.91
2023-01-29T05:11:00.748Z,100871.11
2023-01-29T05:13:29.097Z,100871.96
2023-01-29T05:16:00.077Z,100874.25
2023-01-29T05:18:26.879Z,100877.12
2023-01-29T05:20:53.850Z,100881.72
2023-01-29T05:23:21.494Z,100884.13
2023-01-29T05:25:48.881Z,100884.58
2023-01-29T05:28:16.899Z,100883.94
2023-01-29T05:30:44.428Z,100886.25
2023-01-29T05:33:16.594Z,100882.52
2023-01-29T05:35:46.154Z,100886.13
2023-01-29T05:38:13.168Z,100886.05
2023-01-29T05:40:39.972Z,100885.00
2023-01-29T05:43:14.897Z,100888.67
2023-01-29T05:45:41.798Z,100892.04
2023-01-29T05:48:08.664Z,100889.20
2023-01-29T05:50:35.632Z,100887.95
2023-01-29T05:53:02.599Z,100888.84
2023-01-29T05:55:29.541Z,100888.95
2023-01-29T05:57:59.411Z,100888.17
2023-01-29T06:00:26.283Z,100881.92
2023-01-29T06:02:53.532Z,100886.77
2023-01-29T06:05:20.492Z,100884.28
2023-01-29T06:07:48.250Z,100881.65
2023-01-29T06:10:21.300Z,100879.12
2023-01-29T06:12:48.129Z,100880.60
2023-01-29T06:15:15.570Z,100884.46
2023-01-29T06:17:44.819Z,100880.64
2023-01-29T06:20:12.793Z,100887.27
2023-01-29T06:22:41.033Z,100880.79
2023-01-29T06:25:09.758Z,100884.71
2023-01-29T06:27:39.221Z,100886.61
2023-01-29T06:30:09.750Z,100889.13
2023-01-29T06:32:36.544Z,100887.33
2023-01-29T06:35:09.536Z,100887.54
2023-01-29T06:37:40.063Z,100885.02
2023-01-29T06:40:11.551Z,100886.02
2023-01-29T06:42:38.530Z,100884.86
2023-01-29T06:45:06.613Z,100885.62
2023-01-29T06:47:33.617Z,100887.08
2023-01-29T06:50:00.721Z,100886.24
2023-01-29T06:52:28.619Z,100889.63
2023-01-29T06:54:56.184Z,100886.91
2023-01-29T06:57:22.969Z,100878.34
2023-01-29T06:59:49.671Z,100879.64
2023-01-29T07:02:17.342Z,100880.91
2023-01-29T07:04:44.523Z,100880.50
2023-01-29T07:07:15.279Z,100879.60
2023-01-29T07:09:42.966Z,100882.69
2023-01-29T07:12:10.668Z,100888.35
2023-01-29T07:14:37.986Z,100886.35
2023-01-29T07:17:08.187Z,100884.59
2023-01-29T07:19:35.157Z,100876.96
2023-01-29T07:22:03.449Z,100875.43
2023-01-29T07:24:34.521Z,100877.33
2023-01-29T07:27:01.576Z,100876.10
2023-01-29T07:29:28.425Z,100880.36
2023-01-29T07:31:57.999Z,100877.96
2023-01-29T07:34:25.240Z,100872.16
2023-01-29T07:36:56.306Z,100871.17
2023-01-29T07:39:23.117Z,100869.63
2023-01-29T07:41:49.888Z,100873.47
2023-01-29T07:44:17.017Z,100878.05
2023-01-29T07:46:43.802Z,100875.16
2023-01-29T07:49:12.070Z,100875.04
2023-01-29T07:51:38.858Z,100874.88
2023-01-29T07:54:05.549Z,100871.16
2023-01-29T07:56:33.938Z,100873.71
2023-01-29T07:59:01.136Z,100871.58
2023-01-29T08:01:27.963Z,100869.95
2023-01-29T08:03:55.256Z,100871.73
2023-01-29T08:06:22.419Z,100877.21
2023-01-29T08:08:49.237Z,100880.99
2023-01-29T08:11:17.441Z,100883.89
2023-01-29T08:13:46.230Z,100880.70
2023-01-29T08:16:13.309Z,100881.02
2023-01-29T08:18:43.682Z,100882.55
2023-01-29T08:21:12.926Z,100885.08
2023-01-29T08:23:39.989Z,100887.16
2023-01-29T08:26:06.899Z,100886.58
2023-01-29T08:28:34.670Z,100885.67
2023-01-29T08:31:01.639Z,100889.63
2023-01-29T08:33:38.310Z,100881.85
2023-01-29T08:36:07.353Z,100882.64
2023-01-29T08:38:35.303Z,100888.05
2023-01-29T08:41:02.309Z,100885.45
2023-01-29T08:43:30.720Z,100885.52
2023-01-29T08:45:57.676Z,100882.92
2023-01-29T08:48:24.784Z,100884.58
2023-01-29T08:50:51.544Z,100883.42
2023-01-29T08:53:24.861Z,100885.21
2023-01-29T08:55:52.186Z,100882.02
2023-01-29T08:58:19.024Z,100882.45
2023-01-29T09:00:45.860Z,100877.52
2023-01-29T09:03:13.150Z,100868.29
2023-01-29T09:05:40.112Z,100876.82
2023-01-29T09:08:07.778Z,100871.27
2023-01-29T09:10:36.535Z,100874.56
2023-01-29T09:13:03.667Z,100874.21
2023-01-29T09:15:30.531Z,100871.43
2023-01-29T09:18:03.424Z,100868.20
2023-01-29T09:20:30.404Z,100869.79
2023-01-29T09:22:58.704Z,100865.86
2023-01-29T09:25:25.494Z,100862.50
2023-01-29T09:27:53.691Z,100858.80
2023-01-29T09:30:20.547Z,100857.03
2023-01-29T09:32:53.481Z,100856.23
2023-01-29T09:35:25.004Z,100857.18
2023-01-29T09:37:52.100Z,100851.52
2023-01-29T09:40:49.987Z,100848.21
2023-01-29T09:43:19.223Z,100844.59
2023-01-29T09:46:04.056Z,100843.55
2023-01-29T09:48:33.162Z,100846.41
2023-01-29T09:51:02.959Z,100846.34
2023-01-29T09:53:40.335Z,100845.45
2023-01-29T09:56:33.623Z,100840.70
2023-01-29T09:59:01.747Z,100839.69
2023-01-29T10:01:33.390Z,100831.20
2023-01-29T10:04:28.077Z,100829.54
2023-01-29T10:07:02.184Z,100828.44
2023-01-29T10:10:00.868Z,100826.21
2023-01-29T10:12:28.468Z,100821.77
2023-01-29T10:15:02.165Z,100815.20
2023-01-29T10:17:50.536Z,100815.63
2023-01-29T10:20:42.192Z,100811.38
2023-01-29T10:23:29.864Z,100808.13
2023-01-29T10:25:56.633Z,100805.29
2023-01-29T10:28:45.790Z,100802.16
2023-01-29T10:31:14.857Z,100795.27
2023-01-29T10:34:02.367Z,100795.63
2023-01-29T10:36:43.976Z,100798.02
2023-01-29T10:39:18.831Z,100794.84
2023-01-29T10:42:47.591Z,100791.02
2023-01-29T10:45:48.697Z,100791.59
2023-01-29T10:48:34.178Z,100780.88
2023-01-29T10:51:32.586Z,100778.14
2023-01-29T10:54:19.626Z,100769.95
2023-01-29T10:57:11.670Z,100768.69
2023-01-29T10:59:50.855Z,100770.76
2023-01-29T11:02:20.874Z,100765.12
2023-01-29T11:04:48.126Z,100759.43
2023-01-29T11:07:17.098Z,100754.08
2023-01-29T11:10:07.850Z,100753.30
2023-01-29T11:12:38.155Z,100745.34
2023-01-29T11:15:28.446Z,100744.20
2023-01-29T11:18:05.823Z,100742.05
2023-01-29T11:20:33.245Z,100743.39
2023-01-29T11:23:00.126Z,100747.90
2023-01-29T11:25:30.652Z,100746.85
2023-01-29T11:28:08.923Z,100749.61
2023-01-29T11:30:37.751Z,100743.67
2023-01-29T11:33:25.724Z,100740.98
2023-01-29T11:35:52.796Z,100737.12
2023-01-29T11:38:27.156Z,100736.10
2023-01-29T11:41:06.188Z,100733.45
2023-01-29T11:43:36.516Z,100731.23
2023-01-29T11:46:11.611Z,100727.13
2023-01-29T11:48:47.498Z,100723.50
2023-01-29T12:02:43.350Z,100727.89
2023-01-29T12:05:19.205Z,100724.98
2023-01-29T12:07:51.792Z,100727.42
2023-01-29T12:10:36.656Z,100723.63
2023-01-29T12:13:11.401Z,100723.91
2023-01-29T12:15:42.961Z,100720.44
2023-01-29T12:18:16.781Z,100720.23
2023-01-29T12:20:52.397Z,100714.10
2023-01-29T12:23:29.924Z,100717.54
2023-01-29T12:26:24.515Z,100713.59
2023-01-29T12:29:14.284Z,100709.71
2023-01-29T12:32:03.985Z,100709.08
2023-01-29T12:34:45.869Z,100713.20
2023-01-29T12:37:18.092Z,100719.23
2023-01-29T12:39:46.804Z,100719.43
2023-01-29T12:42:20.731Z,100718.95
2023-01-29T12:44:53.204Z,100717.87
2023-01-29T12:47:38.468Z,100717.88
2023-01-29T12:50:30.523Z,100718.41
2023-01-29T12:52:59.548Z,100717.10
2023-01-29T12:56:06.036Z,100714.49
2023-01-29T12:58:37.089Z,100709.50
2023-01-29T13:01:14.397Z,100709.61
2023-01-29T13:04:01.190Z,100707.89
2023-01-29T13:06:51.379Z,100709.85
2023-01-29T13:09:22.619Z,100709.10
2023-01-29T13:12:04.348Z,100712.14
2023-01-29T13:14:48.275Z,100709.63
2023-01-29T13:17:18.607Z,100711.13
2023-01-29T13:19:49.337Z,100708.86
2023-01-29T13:22:23.941Z,100705.86
2023-01-29T13:25:03.693Z,100703.83
2023-01-29T13:27:34.571Z,100698.54
2023-01-29T13:30:03.435Z,100702.56
2023-01-29T13:32:33.332Z,100706.94
2023-01-29T13:35:04.107Z,100702.92
2023-01-29T13:37:35.404Z,100701.10
2023-01-29T13:40:05.597Z,100703.64
2023-01-29T13:42:40.128Z,100703.22
2023-01-29T13:45:08.899Z,100704.00
2023-01-29T13:47:38.745Z,100703.57
2023-01-29T13:50:21.286Z,100704.45
2023-01-29T13:52:54.808Z,100700.81
2023-01-29T13:55:41.953Z,100702.38
2023-01-29T13:58:18.240Z,100703.40
2023-01-29T14:00:50.300Z,100704.08
2023-01-29T14:03:21.478Z,100703.00
2023-01-29T14:05:54.255Z,100704.27
2023-01-29T14:08:35.059Z,100705.11
2023-01-29T14:11:16.012Z,100706.73
2023-01-29T14:13:47.578Z,100703.64
2023-01-29T14:16:16.925Z,100699.09
2023-01-29T14:18:53.214Z,100698.30
2023-01-29T14:21:32.079Z,100694.58
2023-01-29T14:24:21.023Z,100690.77
2023-01-29T14:26:49.726Z,100688.20
2023-01-29T14:29:34.642Z,100687.75
2023-01-29T14:32:12.116Z,100685.80
2023-01-29T14:35:19.340Z,100686.34
2023-01-29T14:37:53.265Z,100687.67
2023-01-29T14:40:24.069Z,100688.80
2023-01-29T14:43:02.670Z,100687.15
2023-01-29T14:45:34.797Z,100688.00
2023-01-29T14:48:12.342Z,100692.37
2023-01-29T14:50:47.797Z,100696.27
2023-01-29T14:53:26.188Z,100696.46
2023-01-29T14:56:10.265Z,100694.52
2023-01-29T14:59:09.019Z,100697.17
2023-01-29T15:01:40.336Z,100700.88
2023-01-29T15:04:18.182Z,100705.98
2023-01-29T15:07:02.834Z,100708.30
2023-01-29T15:09:50.170Z,100710.38
2023-01-29T15:12:37.653Z,100708.19
2023-01-29T15:15:15.316Z,100708.02
2023-01-29T15:17:55.859Z,100712.54
2023-01-29T15:20:34.025Z,100715.69
2023-01-29T15:23:05.207Z,100715.00
2023-01-29T15:25:48.450Z,100715.28
2023-01-29T15:28:16.947Z,100708.06
2023-01-29T15:30:45.601Z,100709.53
2023-01-29T15:33:14.091Z,100712.00
2023-01-29T15:35:42.452Z,100709.20
2023-01-29T15:38:21.564Z,100708.97
2023-01-29T15:40:53.851Z,100713.73
2023-01-29T15:43:36.101Z,100713.11
2023-01-29T15:46:24.086Z,100713.16
2023-01-29T15:48:54.275Z,100713.34
2023-01-29T15:51:25.076Z,100712.95
2023-01-29T15:53:58.509Z,100713.16
2023-01-29T15:56:33.742Z,100712.86
2023-01-29T15:59:07.314Z,100713.55
2023-01-29T16:01:37.441Z,100719.64
2023-01-29T16:04:06.337Z,100719.11
2023-01-29T16:06:39.470Z,100719.92
2023-01-29T16:09:08.934Z,100718.75
2023-01-29T16:11:37.403Z,100715.86
2023-01-29T16:14:05.720Z,100713.92
2023-01-29T16:16:36.965Z,100711.98
2023-01-29T16:19:31.573Z,100713.36
2023-01-29T16:22:01.865Z,100711.73
2023-01-29T16:24:31.332Z,100712.73
2023-01-29T16:27:01.287Z,100709.25
2023-01-29T16:29:33.957Z,100711.68
2023-01-29T16:32:02.791Z,100713.52
2023-01-29T16:34:36.132Z,100712.55
2023-01-29T16:37:17.185Z,100710.91
2023-01-29T16:39:47.527Z,100715.19
2023-01-29T16:42:21.391Z,100717.29
2023-01-29T16:44:59.685Z,100718.34
2023-01-29T16:47:29.823Z,100719.23
2023-01-29T16:50:01.088Z,100721.30
2023-01-29T16:52:31.626Z,100723.63
2023-01-29T16:55:01.368Z,100724.84
2023-01-29T16:57:32.331Z,100717.77
2023-01-29T17:00:04.244Z,100719.23
2023-01-29T17:02:36.711Z,100718.79
2023-01-29T17:05:10.125Z,100718.50
2023-01-29T17:07:40.221Z,100716.84
2023-01-29T17:10:17.169Z,100714.81
2023-01-29T17:12:51.433Z,100720.70
2023-01-29T17:15:52.163Z,100715.50
2023-01-29T17:18:22.256Z,100715.38
2023-01-29T17:20:51.045Z,100717.05
2023-01-29T17:23:19.705Z,100716.58
2023-01-29T17:25:47.976Z,100716.55
2023-01-29T17:28:18.053Z,100713.39
2023-01-29T17:31:00.081Z,100716.23
2023-01-29T17:33:34.206Z,100714.89
2023-01-29T17:36:02.449Z,100712.83
2023-01-29T17:38:30.739Z,100715.78
2023-01-29T17:41:03.944Z,100716.97
2023-01-29T17:43:32.962Z,100713.80
2023-01-29T17:46:01.238Z,100709.38
2023-01-29T17:48:29.915Z,100705.77
2023-01-29T17:51:03.352Z,100705.75
2023-01-29T17:53:45.598Z,100699.83
2023-01-29T17:56:28.526Z,100699.88
2023-01-29T17:58:56.961Z,100699.39
2023-01-29T18:01:25.352Z,100700.55
2023-01-29T18:03:53.861Z,100694.80
2023-01-29T18:06:27.944Z,100699.84
2023-01-29T18:08:57.618Z,100693.69
2023-01-29T18:11:26.698Z,100688.82
2023-01-29T18:13:56.777Z,100688.02
2023-01-29T18:16:25.894Z,100682.30
2023-01-29T18:18:57.088Z,100681.73
2023-01-29T18:21:25.472Z,100677.55
2023-01-29T18:23:54.019Z,100678.60
2023-01-29T18:26:23.093Z,100679.42
2023-01-29T18:28:51.846Z,100680.48
2023-01-29T18:31:21.669Z,100676.16
2023-01-29T18:33:54.621Z,100673.45
2023-01-29T18:36:22.954Z,100672.57
2023-01-29T18:38:51.758Z,100670.89
2023-01-29T18:41:19.931Z,100672.92
2023-01-29T18:43:50.103Z,100671.29
2023-01-29T18:46:19.247Z,100675.96
2023-01-29T18:48:48.356Z,100677.42
2023-01-29T18:51:16.557Z,100682.34
2023-01-29T18:53:48.906Z,100680.55
2023-01-29T18:56:18.141Z,100680.18
2023-01-29T18:58:52.334Z,100683.88
2023-01-29T19:01:24.413Z,100682.41
2023-01-29T19:03:52.737Z,100679.05
2023-01-29T19:06:20.849Z,100679.09
2023-01-29T19:08:49.618Z,100680.63
2023-01-29T19:11:18.731Z,100686.95
2023-01-29T19:13:48.172Z,100690.38
2023-01-29T19:16:16.527Z,100692.59
2023-01-29T19:18:46.489Z,100691.17
2023-01-29T19:21:15.617Z,100693.55
2023-01-29T19:23:45.797Z,100693.36
2023-01-29T19:26:14.129Z,100693.23
2023-01-29T19:28:42.803Z,100691.44
2023-01-29T19:31:11.555Z,100691.87
2023-01-29T19:33:40.012Z,100696.73
2023-01-29T19:36:08.995Z,100700.05
2023-01-29T19:38:38.916Z,100695.77
2023-01-29T19:41:07.387Z,100691.65
2023-01-29T19:43:38.298Z,100686.89
2023-01-29T19:46:07.683Z,100685.48
2023-01-29T20:01:07.494Z,100680.70
2023-01-29T20:03:38.237Z,100677.42
2023-01-29T20:06:07.390Z,100671.96
2023-01-29T20:08:36.373Z,100672.89
2023-01-29T20:11:05.739Z,100672.35
2023-01-29T20:13:34.132Z,100672.73
2023-01-29T20:16:04.108Z,100670.55
2023-01-29T20:18:34.108Z,100669.48
2023-01-29T20:21:08.380Z,100674.55
2023-01-29T20:23:38.726Z,100671.91
2023-01-29T20:26:14.560Z,100670.23
2023-01-29T20:28:43.553Z,100667.71
2023-01-29T20:31:12.343Z,100664.52
2023-01-29T20:33:41.015Z,100664.63
2023-01-29T20:36:10.373Z,100669.09
2023-01-29T20:38:38.732Z,100672.36
2023-01-29T20:41:14.474Z,100681.35
2023-01-29T20:43:43.313Z,100687.67
2023-01-29T20:46:11.699Z,100687.35
2023-01-29T20:48:43.891Z,100688.74
2023-01-29T20:51:15.760Z,100686.17
2023-01-29T20:53:45.891Z,100687.17
2023-01-29T20:56:15.968Z,100687.80
2023-01-29T20:58:46.912Z,100688.46
2023-01-29T21:01:17.699Z,100681.74
2023-01-29T21:03:46.825Z,100683.69
2023-01-29T21:06:15.956Z,100675.63
2023-01-29T21:08:44.856Z,100676.77
2023-01-29T21:11:12.979Z,100677.27
2023-01-29T21:13:41.199Z,100679.75
2023-01-29T21:16:11.410Z,100683.36
2023-01-29T21:18:39.877Z,100682.98
2023-01-29T21:21:08.498Z,100677.16
2023-01-29T21:23:36.716Z,100674.58
2023-01-29T21:26:05.223Z,100671.03
2023-01-29T21:28:33.859Z,100665.66
2023-01-29T21:31:06.601Z,100660.31
2023-01-29T21:33:35.444Z,100661.77
2023-01-29T21:36:04.873Z,100659.36
2023-01-29T21:38:33.181Z,100654.63
2023-01-29T21:41:02.847Z,100655.83
2023-01-29T21:43:31.435Z,100657.67
2023-01-29T21:46:00.742Z,100655.61
2023-01-29T21:48:29.120Z,100653.73
2023-01-29T21:50:58.080Z,100652.95
2023-01-29T21:53:26.344Z,100654.44
2023-01-29T21:56:02.497Z,100657.11
2023-01-29T21:58:31.097Z,100647.95
2023-01-29T22:01:37.287Z,100645.76
2023-01-29T22:04:09.058Z,100644.62
2023-01-29T22:06:37.266Z,100641.89
2023-01-29T22:09:07.658Z,100647.67
2023-01-29T22:11:36.284Z,100638.55
2023-01-29T22:14:05.272Z,100641.05
2023-01-29T22:16:33.616Z,100636.42
2023-01-29T22:19:01.952Z,100639.55
2023-01-29T22:21:30.488Z,100634.67
2023-01-29T22:23:58.710Z,100636.67
2023-01-29T22:26:26.871Z,100635.35
2023-01-29T22:28:55.133Z,100634.71
2023-01-29T22:31:23.328Z,100631.52
2023-01-29T22:33:53.362Z,100629.74
2023-01-29T22:36:21.809Z,100624.34
2023-01-29T22:38:49.973Z,100624.47
2023-01-29T22:41:18.253Z,100620.52
2023-01-29T22:43:46.543Z,100624.56
2023-01-29T22:46:14.834Z,100619.19
2023-01-29T22:48:44.921Z,100619.36
2023-01-29T22:51:13.974Z,100617.81
2023-01-29T22:53:49.074Z,100618.44
2023-01-29T22:56:18.199Z,100614.02
2023-01-29T22:58:51.463Z,100617.44
2023-01-29T23:01:20.492Z,100613.73
2023-01-29T23:03:48.734Z,100611.53
2023-01-29T23:06:17.430Z,100614.56
2023-01-29T23:08:45.750Z,100611.98
2023-01-29T23:11:16.022Z,100611.69
2023-01-29T23:13:45.356Z,100607.77
2023-01-29T23:16:14.205Z,100601.92
2023-01-29T23:18:44.076Z,100597.03
2023-01-29T23:21:12.818Z,100594.46
2023-01-29T23:23:41.488Z,100590.77
2023-01-29T23:26:29.994Z,100581.61
2023-01-29T23:28:59.058Z,100577.89
2023-01-29T23:31:27.205Z,100573.31
2023-01-29T23:33:55.465Z,100573.30
2023-01-29T23:36:24.268Z,100567.20
2023-01-29T23:38:52.453Z,100558.58
2023-01-29T23:41:21.495Z,100552.44
2023-01-29T23:43:50.160Z,100549.95
2023-01-29T23:46:18.811Z,100544.84
2023-01-29T23:48:47.028Z,100547.64
2023-01-29T23:51:15.651Z,100547.92
2023-01-29T23:53:44.320Z,100537.39
2023-01-29T23:56:12.603Z,100539.23
2023-01-29T23:58:42.501Z,100534.52
